Terminal Aerodrome Forecast
Issued by NWS

Home | Current Version | Previous Version | Text Only | Print | Product List | Glossary On
Versions: 1 2 3 4 5 6 7 8 9 10 11 12 13 14
000
FTUS46 KOTX 250523
TAFMWH
TAF
KMWH 250523Z 2506/2606 03008KT P6SM SCT040 BKN080
     FM251400 01006KT 6SM BR BKN008
     FM251900 17008KT P6SM BKN080 BKN100
     FM260200 20015G25KT P6SM VCSH SCT030 BKN060=

USA.gov is the U.S. government's official web portal to all federal, state and local government web resources and services.